createdAt,value
2024-02-03T00:01:06.547Z,3.28
2024-02-03T00:04:10.381Z,3.40
2024-02-03T00:07:13.663Z,3.20
2024-02-03T00:10:17.136Z,2.95
2024-02-03T00:13:20.577Z,3.10
2024-02-03T00:16:24.010Z,3.10
2024-02-03T00:19:26.732Z,3.00
2024-02-03T00:22:30.110Z,3.08
2024-02-03T00:25:33.917Z,3.13
2024-02-03T00:28:37.524Z,2.97
2024-02-03T00:31:41.285Z,3.20
2024-02-03T00:34:45.758Z,2.55
2024-02-03T00:37:49.360Z,2.83
2024-02-03T00:40:52.099Z,2.58
2024-02-03T00:43:56.398Z,2.78
2024-02-03T00:46:59.950Z,3.05
2024-02-03T00:50:03.676Z,3.00
2024-02-03T00:53:06.604Z,2.95
2024-02-03T00:56:09.441Z,2.90
2024-02-03T00:59:12.272Z,2.55
2024-02-03T01:02:14.962Z,2.85
2024-02-03T01:05:17.855Z,2.70
2024-02-03T01:08:20.477Z,2.47
2024-02-03T01:11:23.325Z,2.38
2024-02-03T01:14:25.934Z,2.50
2024-02-03T01:17:28.329Z,2.40
2024-02-03T01:20:31.744Z,2.45
2024-02-03T01:23:35.947Z,2.38
2024-02-03T01:26:39.502Z,2.40
2024-02-03T01:29:43.322Z,2.50
2024-02-03T01:32:46.084Z,2.10
2024-02-03T01:35:49.130Z,2.03
2024-02-03T01:38:51.519Z,2.28
2024-02-03T01:41:54.518Z,2.10
2024-02-03T01:44:57.838Z,2.05
2024-02-03T01:48:01.040Z,1.98
2024-02-03T01:51:06.065Z,1.90
2024-02-03T01:54:09.376Z,1.92
2024-02-03T01:57:12.387Z,2.30
2024-02-03T02:00:15.424Z,2.10
2024-02-03T02:03:18.090Z,2.05
2024-02-03T02:06:21.113Z,2.20
2024-02-03T02:09:24.508Z,1.70
2024-02-03T02:12:27.331Z,2.08
2024-02-03T02:15:30.885Z,1.55
2024-02-03T02:18:34.946Z,1.73
2024-02-03T02:21:38.047Z,1.50
2024-02-03T02:24:41.023Z,1.50
2024-02-03T02:27:43.463Z,1.30
2024-02-03T02:30:46.643Z,1.42
2024-02-03T02:33:50.624Z,1.40
2024-02-03T02:36:54.021Z,1.50
2024-02-03T02:39:57.690Z,1.20
2024-02-03T02:43:01.401Z,1.42
2024-02-03T02:46:04.637Z,1.40
2024-02-03T02:49:07.827Z,1.50
2024-02-03T02:52:10.354Z,1.30
2024-02-03T02:55:13.799Z,1.58
2024-02-03T02:58:17.371Z,1.67
2024-02-03T03:01:21.184Z,1.50
2024-02-03T03:04:24.091Z,1.63
2024-02-03T03:07:28.197Z,1.23
2024-02-03T03:10:31.560Z,1.50
2024-02-03T03:13:34.424Z,1.40
2024-02-03T03:16:37.443Z,1.30
2024-02-03T03:19:40.206Z,1.45
2024-02-03T03:22:42.933Z,1.40
2024-02-03T03:25:45.949Z,1.38
2024-02-03T03:28:49.077Z,1.42
2024-02-03T03:31:52.939Z,1.60
2024-02-03T03:34:55.912Z,1.45
2024-02-03T03:37:59.979Z,1.40
2024-02-03T03:41:03.451Z,1.50
2024-02-03T03:44:05.846Z,1.42
2024-02-03T03:47:08.676Z,1.48
2024-02-03T03:50:11.083Z,1.23
2024-02-03T03:53:14.682Z,1.17
2024-02-03T03:56:17.540Z,1.40
2024-02-03T03:59:21.237Z,1.00
2024-02-03T04:02:24.545Z,1.30
2024-02-03T04:05:28.127Z,1.40
2024-02-03T04:08:31.034Z,1.23
2024-02-03T04:11:33.811Z,1.40
2024-02-03T04:14:36.613Z,1.20
2024-02-03T04:17:39.323Z,1.10
2024-02-03T04:20:42.795Z,1.10
2024-02-03T04:23:45.598Z,1.30
2024-02-03T04:26:48.037Z,1.10
2024-02-03T04:29:50.821Z,1.10
2024-02-03T04:32:54.279Z,1.10
2024-02-03T04:35:57.772Z,1.10
2024-02-03T04:39:00.792Z,1.42
2024-02-03T04:42:03.295Z,1.20
2024-02-03T04:45:07.384Z,1.20
2024-02-03T04:48:10.515Z,1.40
2024-02-03T04:51:13.788Z,1.08
2024-02-03T04:54:16.811Z,1.10
2024-02-03T04:57:19.677Z,1.25
2024-02-03T05:00:22.477Z,1.02
2024-02-03T05:03:25.703Z,1.10
2024-02-03T05:06:28.598Z,1.30
2024-02-03T05:09:31.593Z,1.30
2024-02-03T05:12:34.581Z,1.20
2024-02-03T05:15:37.298Z,1.27
2024-02-03T05:18:41.168Z,1.00
2024-02-03T05:21:45.163Z,1.50
2024-02-03T05:24:47.693Z,1.30
2024-02-03T05:27:50.852Z,1.17
2024-02-03T05:30:53.689Z,1.20
2024-02-03T05:33:56.128Z,1.13
2024-02-03T05:36:59.045Z,1.00
2024-02-03T05:40:02.031Z,0.95
2024-02-03T05:43:04.822Z,1.20
2024-02-03T05:46:08.561Z,1.17
2024-02-03T05:49:11.835Z,1.35
2024-02-03T05:52:14.657Z,1.15
2024-02-03T05:55:17.214Z,1.15
2024-02-03T05:58:20.058Z,1.13
2024-02-03T06:01:23.979Z,1.13
2024-02-03T06:04:27.356Z,1.30
2024-02-03T06:07:30.590Z,1.00
2024-02-03T06:10:33.956Z,1.25
2024-02-03T06:13:37.610Z,1.00
2024-02-03T06:16:40.813Z,0.98
2024-02-03T06:19:44.382Z,1.02
2024-02-03T06:22:48.106Z,0.90
2024-02-03T06:25:51.207Z,0.80
2024-02-03T06:28:53.630Z,0.98
2024-02-03T06:31:56.248Z,0.85
2024-02-03T06:34:59.876Z,0.77
2024-02-03T06:38:02.540Z,0.80
2024-02-03T06:41:05.335Z,1.00
2024-02-03T06:44:07.769Z,0.90
2024-02-03T06:47:10.087Z,0.80
2024-02-03T06:50:12.376Z,1.10
2024-02-03T06:53:14.711Z,1.05
2024-02-03T06:56:18.073Z,1.10
2024-02-03T06:59:22.010Z,1.17
2024-02-03T07:02:25.498Z,0.90
2024-02-03T07:05:30.219Z,0.98
2024-02-03T07:08:33.627Z,0.93
2024-02-03T07:11:37.337Z,1.23
2024-02-03T07:14:40.097Z,1.17
2024-02-03T07:17:42.448Z,0.90
2024-02-03T07:20:45.407Z,0.90
2024-02-03T07:23:48.529Z,1.10
2024-02-03T07:26:51.310Z,1.20
2024-02-03T07:29:53.605Z,1.02
2024-02-03T07:32:55.945Z,1.20
2024-02-03T07:35:59.108Z,0.90
2024-02-03T07:39:03.005Z,1.00
2024-02-03T07:42:05.848Z,1.00
2024-02-03T07:45:08.583Z,0.88
2024-02-03T07:48:11.037Z,0.80
2024-02-03T07:51:14.031Z,1.40
2024-02-03T07:54:17.216Z,1.17
2024-02-03T07:57:20.074Z,1.20
2024-02-03T08:00:22.538Z,1.27
2024-02-03T08:03:24.965Z,1.10
2024-02-03T08:06:27.510Z,0.98
2024-02-03T08:09:30.150Z,1.10
2024-02-03T08:12:33.140Z,1.17
2024-02-03T08:15:36.492Z,1.20
2024-02-03T08:18:39.394Z,1.00
2024-02-03T08:21:42.169Z,1.45
2024-02-03T08:24:46.234Z,1.30
2024-02-03T08:27:50.327Z,1.00
2024-02-03T08:30:53.862Z,1.30
2024-02-03T08:33:57.289Z,1.45
2024-02-03T08:36:59.885Z,1.30
2024-02-03T08:40:03.057Z,1.10
2024-02-03T08:43:05.986Z,1.13
2024-02-03T08:46:08.881Z,1.08
2024-02-03T08:49:11.746Z,1.35
2024-02-03T08:52:14.257Z,1.30
2024-02-03T08:55:17.486Z,1.08
2024-02-03T08:58:21.063Z,1.33
2024-02-03T09:01:24.313Z,1.20
2024-02-03T09:04:27.635Z,1.38
2024-02-03T09:07:30.518Z,1.17
2024-02-03T09:10:33.170Z,1.40
2024-02-03T09:13:36.320Z,1.40
2024-02-03T09:16:38.901Z,1.20
2024-02-03T09:19:42.478Z,1.13
2024-02-03T09:22:46.210Z,1.40
2024-02-03T09:25:49.766Z,1.20
2024-02-03T09:28:53.223Z,1.30
2024-02-03T09:31:58.905Z,1.25
2024-02-03T09:35:02.259Z,1.30
2024-02-03T09:38:05.721Z,1.15
2024-02-03T09:41:08.796Z,1.38
2024-02-03T09:44:11.245Z,1.27
2024-02-03T09:47:13.847Z,1.20
2024-02-03T09:50:16.648Z,1.00
2024-02-03T09:53:18.980Z,1.20
2024-02-03T09:56:22.164Z,1.20
2024-02-03T09:59:25.594Z,1.20
2024-02-03T10:02:28.121Z,1.35
2024-02-03T10:05:30.917Z,1.10
2024-02-03T10:08:33.298Z,1.42
2024-02-03T10:11:36.124Z,1.20
2024-02-03T10:14:39.286Z,1.10
2024-02-03T10:17:42.834Z,1.10
2024-02-03T10:20:46.302Z,1.35
2024-02-03T10:23:49.411Z,1.30
2024-02-03T10:26:52.634Z,1.25
2024-02-03T10:29:55.434Z,1.20
2024-02-03T10:32:58.600Z,1.13
2024-02-03T10:36:01.363Z,1.30
2024-02-03T10:39:04.267Z,1.17
2024-02-03T10:42:08.473Z,1.40
2024-02-03T10:45:12.141Z,1.48
2024-02-03T10:48:17.406Z,1.30
2024-02-03T10:51:19.981Z,1.40
2024-02-03T10:54:23.159Z,1.27
2024-02-03T10:57:27.287Z,1.58
2024-02-03T11:00:31.892Z,1.42
2024-02-03T11:03:34.933Z,1.25
2024-02-03T11:06:38.116Z,1.23
2024-02-03T11:09:40.844Z,1.40
2024-02-03T11:12:43.577Z,1.20
2024-02-03T11:15:46.589Z,1.70
2024-02-03T11:18:49.622Z,1.63
2024-02-03T11:21:52.595Z,1.23
2024-02-03T11:24:55.477Z,1.50
2024-02-03T11:27:58.796Z,1.30
2024-02-03T11:31:02.366Z,1.73
2024-02-03T11:34:05.431Z,1.38
2024-02-03T11:37:08.583Z,1.20
2024-02-03T11:40:11.726Z,1.38
2024-02-03T11:43:15.104Z,1.40
2024-02-03T11:46:18.454Z,1.30
2024-02-03T11:49:21.982Z,1.50
2024-02-03T11:52:26.298Z,1.30
2024-02-03T11:55:29.672Z,1.50
2024-02-03T11:58:32.440Z,1.40
2024-02-03T12:01:36.390Z,1.20
2024-02-03T12:04:39.618Z,1.65
2024-02-03T12:07:42.891Z,1.30
2024-02-03T12:10:45.559Z,1.67
2024-02-03T12:13:48.446Z,1.50
2024-02-03T12:16:51.922Z,1.30
2024-02-03T12:19:55.232Z,1.50
2024-02-03T12:22:58.887Z,1.60
2024-02-03T12:26:01.671Z,1.30
2024-02-03T12:29:05.000Z,1.30
2024-02-03T12:32:08.065Z,1.13
2024-02-03T12:35:10.842Z,1.35
2024-02-03T12:38:13.802Z,1.50
2024-02-03T12:41:16.614Z,1.50
2024-02-03T12:44:19.785Z,1.50
2024-02-03T12:47:23.350Z,1.70
2024-02-03T12:50:26.947Z,1.48
2024-02-03T12:53:30.442Z,1.13
2024-02-03T12:56:33.803Z,1.60
2024-02-03T12:59:36.541Z,1.42
2024-02-03T13:02:40.061Z,1.30
2024-02-03T13:05:44.118Z,1.30
2024-02-03T13:08:47.483Z,1.40
2024-02-03T13:11:51.015Z,1.50
2024-02-03T13:14:53.828Z,1.30
2024-02-03T13:17:56.739Z,1.50
2024-02-03T13:20:59.709Z,1.30
2024-02-03T13:24:02.838Z,1.23
2024-02-03T13:27:06.671Z,1.40
2024-02-03T13:30:10.258Z,1.50
2024-02-03T13:33:13.482Z,1.30
2024-02-03T13:36:17.802Z,1.35
2024-02-03T13:39:21.746Z,1.33
2024-02-03T13:42:25.067Z,1.33
2024-02-03T13:45:31.093Z,1.35
2024-02-03T13:48:34.878Z,1.30
2024-02-03T13:51:38.223Z,1.20
2024-02-03T13:54:41.896Z,1.10
2024-02-03T13:57:45.121Z,1.13
2024-02-03T14:00:48.283Z,1.30
2024-02-03T14:03:51.452Z,1.25
2024-02-03T14:06:54.500Z,1.35
2024-02-03T14:09:57.439Z,1.20
2024-02-03T14:13:00.469Z,1.23
2024-02-03T14:16:03.283Z,1.20
2024-02-03T14:19:05.978Z,1.42
2024-02-03T14:22:09.213Z,1.40
2024-02-03T14:25:12.304Z,1.20
2024-02-03T14:28:16.270Z,1.35
2024-02-03T14:31:19.326Z,1.50
2024-02-03T14:34:21.943Z,1.40
2024-02-03T14:37:25.734Z,1.50
2024-02-03T14:40:28.785Z,1.30
2024-02-03T14:43:32.500Z,1.30
2024-02-03T14:46:35.336Z,1.35
2024-02-03T14:49:38.719Z,1.42
2024-02-03T14:52:41.639Z,1.50
2024-02-03T14:55:45.097Z,1.52
2024-02-03T14:58:47.699Z,1.33
2024-02-03T15:01:50.442Z,1.40
2024-02-03T15:04:53.734Z,1.30
2024-02-03T15:07:57.179Z,1.10
2024-02-03T15:10:59.687Z,1.10
2024-02-03T15:14:02.832Z,1.10
2024-02-03T15:17:05.462Z,1.00
2024-02-03T15:20:09.255Z,1.10
2024-02-03T15:23:12.777Z,1.13
2024-02-03T15:26:16.015Z,1.00
2024-02-03T15:29:18.712Z,1.10
2024-02-03T15:32:22.664Z,1.25
2024-02-03T15:35:25.491Z,1.00
2024-02-03T15:38:27.995Z,1.17
2024-02-03T15:41:30.798Z,1.10
2024-02-03T15:44:41.338Z,1.00
2024-02-03T15:47:49.122Z,1.20
2024-02-03T15:50:51.601Z,1.10
2024-02-03T15:53:54.733Z,1.10
2024-02-03T15:56:57.872Z,1.10
2024-02-03T16:00:01.322Z,1.30
2024-02-03T16:03:14.388Z,1.10
2024-02-03T16:06:18.021Z,1.00
2024-02-03T16:09:21.258Z,1.17
2024-02-03T16:12:23.623Z,1.20
2024-02-03T16:15:26.090Z,1.27
2024-02-03T16:18:29.673Z,1.40
2024-02-03T16:21:33.253Z,1.30
2024-02-03T16:24:36.910Z,1.20
2024-02-03T16:27:41.226Z,1.20
2024-02-03T16:30:46.178Z,1.00
2024-02-03T16:33:49.993Z,1.20
2024-02-03T16:36:52.933Z,1.55
2024-02-03T16:39:56.690Z,1.02
2024-02-03T16:42:59.976Z,1.08
2024-02-03T16:46:03.976Z,1.00
2024-02-03T16:49:06.655Z,1.10
2024-02-03T16:52:09.723Z,1.40
2024-02-03T16:55:12.590Z,1.10
2024-02-03T16:58:15.326Z,1.10
2024-02-03T17:01:19.018Z,1.20
2024-02-03T17:04:23.115Z,1.30
2024-02-03T17:07:26.271Z,1.20
2024-02-03T17:10:29.621Z,1.15
2024-02-03T17:13:33.199Z,1.20
2024-02-03T17:16:36.128Z,1.20
2024-02-03T17:19:38.492Z,1.17
2024-02-03T17:22:41.251Z,1.20
2024-02-03T17:25:44.304Z,1.08
2024-02-03T17:28:47.479Z,1.02
2024-02-03T17:31:50.246Z,1.20
2024-02-03T17:34:53.942Z,1.23
2024-02-03T17:37:56.657Z,1.10
2024-02-03T17:40:59.293Z,1.08
2024-02-03T17:44:02.964Z,1.00
2024-02-03T17:47:06.913Z,1.08
2024-02-03T17:50:10.242Z,1.00
2024-02-03T17:53:14.135Z,1.20
2024-02-03T17:56:16.972Z,1.20
2024-02-03T17:59:21.561Z,1.30
2024-02-03T18:02:24.772Z,1.20
2024-02-03T18:05:28.094Z,1.13
2024-02-03T18:08:31.235Z,1.20
2024-02-03T18:11:34.750Z,1.20
2024-02-03T18:14:37.793Z,1.27
2024-02-03T18:17:40.751Z,1.10
2024-02-03T18:20:43.602Z,1.20
2024-02-03T18:23:46.165Z,1.35
2024-02-03T18:26:49.693Z,1.20
2024-02-03T18:29:53.283Z,1.15
2024-02-03T18:32:57.385Z,1.20
2024-02-03T18:36:01.516Z,1.23
2024-02-03T18:39:05.457Z,1.40
2024-02-03T18:42:08.598Z,1.33
2024-02-03T18:45:11.782Z,1.10
2024-02-03T18:48:14.869Z,1.30
2024-02-03T18:51:17.646Z,1.25
2024-02-03T18:54:20.376Z,1.40
2024-02-03T18:57:23.131Z,1.60
2024-02-03T19:00:25.652Z,1.40
2024-02-03T19:03:28.743Z,1.42
2024-02-03T19:06:31.741Z,1.10
2024-02-03T19:09:35.060Z,1.30
2024-02-03T19:12:38.303Z,1.45
2024-02-03T19:15:41.030Z,1.17
2024-02-03T19:18:43.843Z,1.20
2024-02-03T19:21:47.015Z,0.80
2024-02-03T19:24:50.853Z,1.20
2024-02-03T19:27:53.800Z,1.00
2024-02-03T19:30:56.126Z,1.08
2024-02-03T19:33:58.646Z,1.33
2024-02-03T19:37:01.553Z,1.20
2024-02-03T19:40:04.243Z,1.40
2024-02-03T19:43:07.468Z,1.30
2024-02-03T19:46:10.100Z,1.20
2024-02-03T19:49:13.791Z,1.42
2024-02-03T19:52:17.697Z,1.30
2024-02-03T19:55:20.838Z,1.40
2024-02-03T19:58:23.225Z,1.77
2024-02-03T20:01:26.167Z,1.50
2024-02-03T20:04:29.981Z,1.67
2024-02-03T20:07:32.453Z,1.80
2024-02-03T20:10:35.105Z,1.65
2024-02-03T20:13:37.710Z,2.05
2024-02-03T20:16:40.166Z,1.58
2024-02-03T20:19:43.169Z,1.88
2024-02-03T20:22:46.545Z,1.98
2024-02-03T20:25:49.139Z,1.83
2024-02-03T20:28:51.733Z,1.95
2024-02-03T20:31:54.812Z,1.98
2024-02-03T20:34:57.182Z,2.00
2024-02-03T20:38:00.473Z,1.98
2024-02-03T20:41:03.805Z,1.70
2024-02-03T20:44:06.797Z,2.10
2024-02-03T20:47:10.340Z,2.00
2024-02-03T20:50:13.576Z,2.35
2024-02-03T20:53:16.322Z,2.10
2024-02-03T20:56:19.723Z,2.22
2024-02-03T20:59:22.718Z,2.10
2024-02-03T21:02:26.243Z,2.20
2024-02-03T21:05:30.015Z,2.28
2024-02-03T21:08:33.265Z,2.10
2024-02-03T21:11:36.249Z,2.08
2024-02-03T21:14:39.866Z,2.35
2024-02-03T21:17:43.763Z,2.00
2024-02-03T21:20:46.831Z,2.15
2024-02-03T21:23:49.972Z,2.42
2024-02-03T21:26:52.927Z,2.65
2024-02-03T21:29:55.260Z,2.33
2024-02-03T21:32:58.262Z,2.13
2024-02-03T21:36:00.662Z,2.28
2024-02-03T21:39:04.089Z,2.58
2024-02-03T21:42:07.691Z,2.30
2024-02-03T21:45:10.530Z,2.33
2024-02-03T21:48:13.226Z,2.58
2024-02-03T21:51:16.309Z,2.72
2024-02-03T21:54:18.946Z,2.13
2024-02-03T21:57:22.436Z,2.60
2024-02-03T22:00:25.733Z,2.70
2024-02-03T22:03:29.181Z,2.90
2024-02-03T22:06:32.678Z,2.30
2024-02-03T22:09:36.208Z,2.67
2024-02-03T22:12:39.742Z,2.28
2024-02-03T22:15:42.787Z,2.50
2024-02-03T22:18:45.679Z,3.05
2024-02-03T22:21:49.270Z,2.72
2024-02-03T22:24:53.306Z,3.10
2024-02-03T22:27:56.460Z,2.70
2024-02-03T22:30:58.821Z,2.92
2024-02-03T22:34:01.952Z,2.90
2024-02-03T22:37:05.068Z,2.60
2024-02-03T22:40:08.182Z,2.80
2024-02-03T22:43:11.023Z,2.83
2024-02-03T22:46:13.126Z,2.92
2024-02-03T22:49:16.224Z,2.78
2024-02-03T22:52:18.820Z,2.90
2024-02-03T22:55:21.693Z,2.72
2024-02-03T22:58:24.882Z,2.92
2024-02-03T23:01:29.077Z,2.90
2024-02-03T23:04:32.906Z,2.88
2024-02-03T23:07:35.806Z,2.85
2024-02-03T23:10:38.669Z,2.70
2024-02-03T23:13:42.226Z,3.05
2024-02-03T23:16:45.018Z,3.20
2024-02-03T23:19:48.084Z,2.95
2024-02-03T23:22:50.468Z,3.05
2024-02-03T23:25:53.319Z,2.80
2024-02-03T23:28:55.598Z,2.92
2024-02-03T23:31:58.084Z,3.10
2024-02-03T23:35:01.131Z,2.97
2024-02-03T23:38:03.528Z,2.47
2024-02-03T23:41:06.040Z,2.47
2024-02-03T23:44:09.869Z,2.20
2024-02-03T23:47:12.891Z,2.15
2024-02-03T23:50:14.951Z,2.05
2024-02-03T23:53:17.945Z,2.28
2024-02-03T23:56:20.865Z,1.95
2024-02-03T23:59:24.173Z,2.05
